KAIB

Details ICAO KAIB
Name HOPKINS FLD
Region United States
Timezone America/Denver (UTC-7.0)
Plans Departing 0
Arriving 1
Stats Elevation 5,940 ft / 1,811 m (AMSL)
Location 38.238751° -108.563215°
Runways 2
Magnetic Variation 9.736° E
Sunrise 2017-12-16 14:26:01 UTC / 2017-12-16 07:26:01 Local
Sunset 2017-12-16 23:56:49 UTC / 2017-12-16 16:56:49 Local
Advertisement - Login to hide

Runways

ID Width Length Bearing (true) Bearing (mag) Surface Threshold Offset Overrun Length
05 75 ft / 23 m 4,594 ft / 1,400 m 58.42° 48.68° Asphalt 0 ft / 0 m 0 ft / 0 m
11 80 ft / 24 m 3,995 ft / 1,218 m 124.02° 114.28° Dirt 0 ft / 0 m 0 ft / 0 m
23 75 ft / 23 m 4,594 ft / 1,400 m 238.43° 228.69° Asphalt 0 ft / 0 m 0 ft / 0 m
29 80 ft / 24 m 3,995 ft / 1,218 m 304.02° 294.28° Dirt 0 ft / 0 m 0 ft / 0 m

Map

Weather


0- 5 10 15 20 25 30 35+ Temperature / ° C

Clouds and Precipitation
Forecast for 2017-12-16 18:00 UTC. Updated 2 hours ago

Ground ~20,000 ft ~40,000 ft Winds

METAR

KAIB 161435Z AUTO 13005KT 10SM CLR M06/M21 A2994 RMK AO2

TAF

Not found

Frequencies

Recorded 132.52 MHz AWOS 3
Unicom 122.80 MHz CTAF/UNICOM
Warning: Do not use this data for real-world aviation or navigation. No guarantee of current accuracy is given.